Time;durP1;ratioP1;P1;durP2;ratioP2;P2;SDS_P1;SDS_P2;PMS_P1;PMS_P2;Temp;Humidity;BMP_temperature;BMP_pressure;BME280_temperature;BME280_humidity;BME280_pressure;Samples;Min_cycle;Max_cycle;Signal;HPM_P1;HPM_P2
2021/06/15 00:01:31;;;;;;;7.32;4.85;;;;;;;;;;5032192;28;20495;-73
2021/06/15 00:03:57;;;;;;;7.20;4.80;;;;;;;;;;5032411;28;20101;-73
2021/06/15 00:06:23;;;;;;;9.38;5.30;;;;;;;;;;5032492;28;20028;-71
2021/06/15 00:08:49;;;;;;;6.15;4.78;;;;;;;;;;5032125;28;20036;-71
2021/06/15 00:11:15;;;;;;;7.45;4.78;;;;;;;;;;5032270;28;20097;-69
2021/06/15 00:13:41;;;;;;;6.53;4.57;;;;;;;;;;5032193;28;20307;-69
2021/06/15 00:16:08;;;;;;;6.88;4.72;;;;;;;;;;5032250;28;20442;-71
2021/06/15 00:18:34;;;;;;;7.22;5.00;;;;;;;;;;5032147;28;20112;-73
2021/06/15 00:21:00;;;;;;;8.57;4.72;;;;;;;;;;5032225;28;20079;-73
2021/06/15 00:23:26;;;;;;;11.85;5.35;;;;;;;;;;5031772;28;20045;-73
2021/06/15 00:25:52;;;;;;;8.23;4.82;;;;;;;;;;5017753;28;20191;-69
2021/06/15 00:28:19;;;;;;;5.45;4.30;;;;;;;;;;5024718;28;20022;-72
2021/06/15 00:30:46;;;;;;;7.93;4.63;;;;;;;;;;5025927;28;20416;-70
2021/06/15 00:33:12;;;;;;;8.10;4.88;;;;;;;;;;5028049;28;20515;-71
2021/06/15 00:35:38;;;;;;;7.47;4.32;;;;;;;;;;5014430;28;20395;-71
2021/06/15 00:38:04;;;;;;;8.35;4.50;;;;;;;;;;5012014;28;20018;-71
2021/06/15 00:40:30;;;;;;;7.50;4.45;;;;;;;;;;5012639;28;20388;-73
2021/06/15 00:42:56;;;;;;;7.93;4.95;;;;;;;;;;5012113;28;20026;-71
2021/06/15 00:45:25;;;;;;;5.50;4.10;;;;;;;;;;5023909;28;20034;-71
2021/06/15 00:47:51;;;;;;;6.97;4.57;;;;;;;;;;5012164;28;20101;-72
2021/06/15 00:50:18;;;;;;;7.15;3.80;;;;;;;;;;5014382;28;20037;-71
2021/06/15 00:52:44;;;;;;;6.05;4.38;;;;;;;;;;5012181;28;20113;-70
2021/06/15 00:55:10;;;;;;;5.95;3.72;;;;;;;;;;5012718;28;20116;-71
2021/06/15 00:57:36;;;;;;;9.77;4.53;;;;;;;;;;5018707;28;20045;-73
2021/06/15 01:00:03;;;;;;;8.00;4.57;;;;;;;;;;5015084;28;20065;-71
2021/06/15 01:02:31;;;;;;;5.35;4.40;;;;;;;;;;5015712;28;20022;-72
2021/06/15 01:05:00;;;;;;;6.97;4.70;;;;;;;;;;5015938;28;20384;-73
2021/06/15 01:07:32;;;;;;;6.78;4.40;;;;;;;;;;5015458;28;20745;-72
2021/06/15 01:10:07;;;;;;;6.35;4.82;;;;;;;;;;5016026;28;20038;-72
2021/06/15 01:12:45;;;;;;;8.77;5.15;;;;;;;;;;5015527;28;20029;-73
2021/06/15 01:15:13;;;;;;;7.80;4.10;;;;;;;;;;5015323;28;20042;-69
2021/06/15 01:17:39;;;;;;;5.95;4.30;;;;;;;;;;5015421;28;20026;-72
2021/06/15 01:20:08;;;;;;;8.02;4.30;;;;;;;;;;5015534;28;20058;-73
2021/06/15 01:22:43;;;;;;;9.07;4.35;;;;;;;;;;5015098;28;20037;-73
2021/06/15 01:25:16;;;;;;;6.32;4.25;;;;;;;;;;5020865;28;20029;-70
2021/06/15 01:27:45;;;;;;;5.93;4.65;;;;;;;;;;5017116;28;20022;-73
2021/06/15 01:30:15;;;;;;;8.63;4.60;;;;;;;;;;5024292;28;20079;-71
2021/06/15 01:32:45;;;;;;;9.18;4.90;;;;;;;;;;5016397;28;20033;-71
2021/06/15 01:35:13;;;;;;;5.75;4.70;;;;;;;;;;5026110;28;20034;-72
2021/06/15 01:37:41;;;;;;;30.88;17.30;;;;;;;;;;5014903;28;20030;-70
2021/06/15 01:40:17;;;;;;;10.77;6.95;;;;;;;;;;5015330;28;20100;-72
2021/06/15 01:42:52;;;;;;;11.85;8.02;;;;;;;;;;5014751;28;20034;-70
2021/06/15 01:45:21;;;;;;;8.13;5.72;;;;;;;;;;5015093;28;20025;-71
2021/06/15 01:47:59;;;;;;;9.75;6.40;;;;;;;;;;5014902;28;20018;-71
2021/06/15 01:50:31;;;;;;;45.80;24.98;;;;;;;;;;5014933;28;20461;-71
2021/06/15 01:52:58;;;;;;;17.25;8.38;;;;;;;;;;5014622;28;20121;-72
2021/06/15 01:55:25;;;;;;;10.07;5.30;;;;;;;;;;5024142;28;20120;-71
2021/06/15 01:57:53;;;;;;;8.05;4.82;;;;;;;;;;5036296;28;20018;-71
2021/06/15 02:00:20;;;;;;;10.13;5.70;;;;;;;;;;5014596;28;20076;-73
2021/06/15 02:02:48;;;;;;;11.75;5.30;;;;;;;;;;5014782;28;20026;-73
2021/06/15 02:05:16;;;;;;;9.45;6.15;;;;;;;;;;5014210;28;20389;-72
2021/06/15 02:07:44;;;;;;;10.68;5.97;;;;;;;;;;5014386;28;20033;-71
2021/06/15 02:10:15;;;;;;;7.43;5.13;;;;;;;;;;5014383;28;20033;-73
2021/06/15 02:12:43;;;;;;;11.13;5.70;;;;;;;;;;5013855;28;20025;-72
2021/06/15 02:15:10;;;;;;;11.07;5.70;;;;;;;;;;5014179;28;20041;-72
2021/06/15 02:17:39;;;;;;;8.02;6.30;;;;;;;;;;5014276;28;20026;-71
2021/06/15 02:20:06;;;;;;;6.78;5.35;;;;;;;;;;5014083;28;20022;-71
2021/06/15 02:22:33;;;;;;;7.53;5.75;;;;;;;;;;5014150;28;20045;-73
2021/06/15 02:25:00;;;;;;;10.60;5.88;;;;;;;;;;5027313;28;20030;-72
2021/06/15 02:27:27;;;;;;;7.90;5.53;;;;;;;;;;5015630;28;20476;-73
2021/06/15 02:29:57;;;;;;;11.65;7.15;;;;;;;;;;5020563;28;20025;-72
2021/06/15 02:32:32;;;;;;;9.88;5.82;;;;;;;;;;5033971;28;20065;-73
2021/06/15 02:34:59;;;;;;;12.60;6.68;;;;;;;;;;5033747;28;20029;-73
2021/06/15 02:37:27;;;;;;;8.60;5.72;;;;;;;;;;5034191;28;20021;-72
2021/06/15 02:39:55;;;;;;;9.07;5.88;;;;;;;;;;5033516;28;20108;-72
2021/06/15 02:42:22;;;;;;;13.60;5.80;;;;;;;;;;5033821;28;20479;-72
2021/06/15 02:44:50;;;;;;;12.27;5.53;;;;;;;;;;5033610;28;20029;-72
2021/06/15 02:47:16;;;;;;;8.88;5.20;;;;;;;;;;5033453;28;20095;-73
2021/06/15 02:49:44;;;;;;;12.27;5.80;;;;;;;;;;5004493;28;20516;-70
2021/06/15 02:52:17;;;;;;;15.82;6.72;;;;;;;;;;5013582;28;20026;-72
2021/06/15 02:54:45;;;;;;;15.07;8.13;;;;;;;;;;5013517;28;20073;-71
2021/06/15 02:57:12;;;;;;;10.57;7.82;;;;;;;;;;5017482;28;20427;-73
2021/06/15 02:59:39;;;;;;;14.88;8.30;;;;;;;;;;5013752;28;20029;-73
2021/06/15 03:02:05;;;;;;;10.00;6.57;;;;;;;;;;5023489;28;20025;-72
2021/06/15 03:04:31;;;;;;;12.38;7.43;;;;;;;;;;5013600;28;20026;-73
2021/06/15 03:06:57;;;;;;;15.07;5.78;;;;;;;;;;5013347;28;20065;-73
2021/06/15 03:09:23;;;;;;;12.25;6.50;;;;;;;;;;5023468;28;20056;-73
2021/06/15 03:12:06;;;;;;;9.65;6.03;;;;;;;;;;5018949;28;20057;-71
2021/06/15 03:14:33;;;;;;;11.20;6.18;;;;;;;;;;5022905;28;20055;-72
2021/06/15 03:17:01;;;;;;;7.28;5.25;;;;;;;;;;5013142;28;20025;-73
2021/06/15 03:19:51;;;;;;;26.58;15.02;;;;;;;;;;5017011;28;20052;-73
2021/06/15 03:22:21;;;;;;;8.68;6.80;;;;;;;;;;4981914;28;20577;-72
2021/06/15 03:24:51;;;;;;;8.65;5.80;;;;;;;;;;4986569;28;20170;-71
2021/06/15 03:27:19;;;;;;;9.93;5.47;;;;;;;;;;4984210;28;20444;-72
2021/06/15 03:29:46;;;;;;;9.45;5.07;;;;;;;;;;4991001;28;20034;-69
2021/06/15 03:32:14;;;;;;;7.47;4.88;;;;;;;;;;4981624;28;20030;-72
2021/06/15 03:34:51;;;;;;;9.45;4.45;;;;;;;;;;4987035;28;20081;-71
2021/06/15 03:37:20;;;;;;;11.18;6.43;;;;;;;;;;4989287;28;20061;-71
2021/06/15 03:39:48;;;;;;;13.05;7.75;;;;;;;;;;4986838;28;20497;-71
2021/06/15 03:42:19;;;;;;;15.15;9.00;;;;;;;;;;4989246;28;20038;-72
2021/06/15 03:44:50;;;;;;;18.17;10.20;;;;;;;;;;4987090;28;20608;-73
2021/06/15 03:47:17;;;;;;;10.60;6.00;;;;;;;;;;4976763;28;20524;-73
2021/06/15 03:49:43;;;;;;;18.02;9.73;;;;;;;;;;4972666;28;20044;-72
2021/06/15 03:52:10;;;;;;;11.85;6.07;;;;;;;;;;4981937;28;20035;-72
2021/06/15 03:54:38;;;;;;;7.63;5.40;;;;;;;;;;4982370;28;20580;-70
2021/06/15 03:57:05;;;;;;;10.40;6.60;;;;;;;;;;4991532;28;20032;-70
2021/06/15 03:59:32;;;;;;;7.60;5.07;;;;;;;;;;4999059;28;20040;-72
2021/06/15 04:02:02;;;;;;;8.48;4.60;;;;;;;;;;5012793;28;20384;-70
2021/06/15 04:04:30;;;;;;;10.02;7.18;;;;;;;;;;5012712;28;20041;-70
2021/06/15 04:06:56;;;;;;;18.20;8.27;;;;;;;;;;5012387;28;20476;-71
2021/06/15 04:09:26;;;;;;;10.93;5.22;;;;;;;;;;5012427;28;20045;-71
2021/06/15 04:11:57;;;;;;;8.98;5.15;;;;;;;;;;5012714;28;20029;-71
2021/06/15 04:14:24;;;;;;;15.27;9.93;;;;;;;;;;5012527;28;20037;-72
2021/06/15 04:16:51;;;;;;;9.52;6.47;;;;;;;;;;5025664;28;20424;-71
2021/06/15 04:19:20;;;;;;;18.05;10.23;;;;;;;;;;5013072;28;20125;-72
2021/06/15 04:21:47;;;;;;;10.43;7.05;;;;;;;;;;5012777;28;20036;-72
2021/06/15 04:24:16;;;;;;;11.93;7.03;;;;;;;;;;5012503;28;20101;-71
2021/06/15 04:26:43;;;;;;;10.07;5.50;;;;;;;;;;5014267;28;20056;-71
2021/06/15 04:29:14;;;;;;;10.45;5.82;;;;;;;;;;5020522;28;20160;-70
2021/06/15 04:31:41;;;;;;;13.10;6.50;;;;;;;;;;5012281;28;20088;-73
2021/06/15 04:34:08;;;;;;;10.75;5.75;;;;;;;;;;4994663;28;20116;-72
2021/06/15 04:36:35;;;;;;;11.43;7.15;;;;;;;;;;5014907;28;20021;-72
2021/06/15 04:39:05;;;;;;;18.40;8.52;;;;;;;;;;5018360;28;20075;-73
2021/06/15 04:41:35;;;;;;;14.18;8.02;;;;;;;;;;5017562;28;20076;-72
2021/06/15 04:44:02;;;;;;;11.53;6.60;;;;;;;;;;5016531;28;20148;-72
2021/06/15 04:46:28;;;;;;;13.75;5.85;;;;;;;;;;5016104;28;20033;-73
2021/06/15 04:48:57;;;;;;;9.77;5.97;;;;;;;;;;5016501;28;20026;-71
2021/06/15 04:51:23;;;;;;;11.88;5.32;;;;;;;;;;5016006;28;20164;-73
2021/06/15 04:53:50;;;;;;;12.32;6.20;;;;;;;;;;5016005;28;20048;-69
2021/06/15 04:56:17;;;;;;;10.85;6.78;;;;;;;;;;5019862;28;20507;-73
2021/06/15 04:58:44;;;;;;;9.50;5.72;;;;;;;;;;5016408;28;20014;-71
2021/06/15 05:01:10;;;;;;;8.40;5.60;;;;;;;;;;5016220;28;20113;-69
2021/06/15 05:03:37;;;;;;;10.75;5.90;;;;;;;;;;5015762;28;20372;-71
2021/06/15 05:06:04;;;;;;;12.77;6.13;;;;;;;;;;5015487;28;20542;-73
2021/06/15 05:08:32;;;;;;;13.20;6.18;;;;;;;;;;5015744;28;20084;-71
2021/06/15 05:10:59;;;;;;;12.25;6.00;;;;;;;;;;5015504;28;20056;-72
2021/06/15 05:13:25;;;;;;;9.48;4.70;;;;;;;;;;5015523;28;20117;-70
2021/06/15 05:15:53;;;;;;;11.73;5.35;;;;;;;;;;5015377;28;20396;-71
2021/06/15 05:18:22;;;;;;;11.82;6.15;;;;;;;;;;5016037;28;20446;-73
2021/06/15 05:20:48;;;;;;;8.20;6.05;;;;;;;;;;5015566;28;20029;-71
2021/06/15 05:23:27;;;;;;;12.65;5.03;;;;;;;;;;5015140;28;20538;-72
2021/06/15 05:25:53;;;;;;;8.30;4.70;;;;;;;;;;5019857;28;20022;-71
2021/06/15 05:28:19;;;;;;;11.32;5.25;;;;;;;;;;5015442;28;20064;-71
2021/06/15 05:30:45;;;;;;;9.57;4.60;;;;;;;;;;5028967;28;20059;-70
2021/06/15 05:33:12;;;;;;;7.13;5.32;;;;;;;;;;5034692;28;20052;-69
2021/06/15 05:35:40;;;;;;;10.75;4.60;;;;;;;;;;5035305;28;20040;-69
2021/06/15 05:38:06;;;;;;;15.85;8.07;;;;;;;;;;5034810;28;20100;-71
2021/06/15 05:40:32;;;;;;;14.30;6.57;;;;;;;;;;5034919;28;20434;-68
2021/06/15 05:42:58;;;;;;;12.65;5.68;;;;;;;;;;5034728;28;20037;-70
2021/06/15 05:45:24;;;;;;;11.18;5.55;;;;;;;;;;5017098;28;20056;-67
2021/06/15 05:47:50;;;;;;;15.05;6.13;;;;;;;;;;5033551;28;20065;-66
2021/06/15 05:50:16;;;;;;;25.77;6.70;;;;;;;;;;5034719;28;20032;-71
2021/06/15 05:52:44;;;;;;;11.90;5.75;;;;;;;;;;5034750;28;20526;-69
2021/06/15 05:55:11;;;;;;;10.68;6.20;;;;;;;;;;5035951;28;20472;-67
2021/06/15 05:57:38;;;;;;;14.70;5.93;;;;;;;;;;5043822;28;20025;-70
2021/06/15 06:00:05;;;;;;;9.82;6.22;;;;;;;;;;5034321;28;20052;-67
2021/06/15 06:02:31;;;;;;;19.02;7.13;;;;;;;;;;5034302;28;20080;-68
2021/06/15 06:10:08;;;;;;;13.50;6.00;;;;;;;;;;5034599;28;20538;-73
2021/06/15 06:12:34;;;;;;;12.23;4.93;;;;;;;;;;5034650;28;20105;-73
2021/06/15 06:15:00;;;;;;;9.48;4.45;;;;;;;;;;5034271;28;20041;-73
2021/06/15 06:17:27;;;;;;;18.33;9.13;;;;;;;;;;5020675;28;20033;-73
2021/06/15 06:19:53;;;;;;;7.47;5.35;;;;;;;;;;5034557;28;20034;-70
2021/06/15 06:22:20;;;;;;;12.48;5.55;;;;;;;;;;5034019;28;20112;-74
2021/06/15 06:24:47;;;;;;;10.27;5.47;;;;;;;;;;5033773;28;20052;-71
2021/06/15 06:27:13;;;;;;;15.82;6.40;;;;;;;;;;5035988;28;20048;-73
2021/06/15 06:29:39;;;;;;;15.10;6.53;;;;;;;;;;5020060;28;20017;-70
2021/06/15 06:32:06;;;;;;;13.05;5.40;;;;;;;;;;5033800;28;20026;-73
2021/06/15 06:34:32;;;;;;;13.35;6.05;;;;;;;;;;5034054;28;20033;-72
2021/06/15 06:36:58;;;;;;;16.17;5.28;;;;;;;;;;5033925;28;20029;-73
2021/06/15 06:39:24;;;;;;;9.60;5.13;;;;;;;;;;5033641;28;20021;-72
2021/06/15 06:41:50;;;;;;;12.98;4.80;;;;;;;;;;5033742;28;20021;-73
2021/06/15 06:44:17;;;;;;;8.43;4.32;;;;;;;;;;5033603;28;20026;-73
2021/06/15 06:46:43;;;;;;;11.93;5.13;;;;;;;;;;5033380;28;20460;-73
2021/06/15 06:49:10;;;;;;;12.43;4.72;;;;;;;;;;5033666;28;20039;-70
2021/06/15 06:51:36;;;;;;;7.10;4.40;;;;;;;;;;5033512;28;20028;-69
2021/06/15 06:54:02;;;;;;;7.25;4.43;;;;;;;;;;5033916;28;20044;-73
2021/06/15 06:56:28;;;;;;;9.52;5.28;;;;;;;;;;5044004;28;20372;-71
2021/06/15 06:58:55;;;;;;;4.50;3.58;;;;;;;;;;5033184;28;20017;-72
2021/06/15 07:01:21;;;;;;;15.88;4.70;;;;;;;;;;5033280;28;20140;-74
2021/06/15 07:03:48;;;;;;;11.27;5.03;;;;;;;;;;5033160;28;20017;-72
2021/06/15 07:06:15;;;;;;;15.40;5.35;;;;;;;;;;5033375;28;20057;-70
2021/06/15 07:08:41;;;;;;;20.40;5.55;;;;;;;;;;5019126;28;20071;-69
2021/06/15 07:11:07;;;;;;;18.02;4.55;;;;;;;;;;5033022;28;20013;-72
2021/06/15 07:13:33;;;;;;;9.38;4.85;;;;;;;;;;5033022;28;20507;-70
2021/06/15 07:15:59;;;;;;;6.75;4.25;;;;;;;;;;5032783;28;20040;-70
2021/06/15 07:18:26;;;;;;;14.60;5.45;;;;;;;;;;5032914;28;20025;-69
2021/06/15 07:20:52;;;;;;;12.95;4.40;;;;;;;;;;5033186;28;20029;-72
2021/06/15 07:23:18;;;;;;;12.35;4.63;;;;;;;;;;5032949;28;20244;-71
2021/06/15 07:25:44;;;;;;;8.95;4.07;;;;;;;;;;5034199;28;20487;-72
2021/06/15 07:28:10;;;;;;;7.40;4.20;;;;;;;;;;5026490;28;20026;-70
2021/06/15 07:30:36;;;;;;;12.27;4.72;;;;;;;;;;5025512;28;20103;-71
2021/06/15 07:33:03;;;;;;;7.53;4.25;;;;;;;;;;5032432;28;20022;-73
2021/06/15 07:35:29;;;;;;;9.43;3.45;;;;;;;;;;5032756;28;20034;-73
2021/06/15 07:37:55;;;;;;;7.60;3.70;;;;;;;;;;5032336;28;20017;-72
2021/06/15 07:40:25;;;;;;;8.90;4.70;;;;;;;;;;5032695;28;20388;-72
2021/06/15 07:42:55;;;;;;;12.57;6.45;;;;;;;;;;5032454;28;20080;-73
2021/06/15 07:45:21;;;;;;;8.93;4.90;;;;;;;;;;5032625;28;20025;-73
2021/06/15 07:47:47;;;;;;;9.65;4.78;;;;;;;;;;5032469;28;20108;-72
2021/06/15 07:50:15;;;;;;;9.25;5.30;;;563.40;1484.80;;;;;;5032603;28;20028;-71
2021/06/15 07:52:41;;;;;;;13.85;5.05;;;;;;;;;;5032624;28;20030;-71
2021/06/15 07:55:08;;;;;;;6.95;4.63;;;563.80;1484.80;;;;;;5032832;28;20068;-70
2021/06/15 07:57:33;;;;;;;9.35;4.13;;;563.80;1459.20;;;;;;5041878;28;20029;-71
2021/06/15 07:59:59;;;;;;;7.90;3.83;;;563.80;1484.80;;;;;;5032049;28;20385;-71
2021/06/15 08:02:25;;;;;;;8.88;3.97;;;563.90;1459.20;;;;;;5032317;28;20108;-71
2021/06/15 08:04:51;;;;;;;7.70;4.10;;;588.90;1459.20;;;;;;5032355;28;20025;-73
2021/06/15 08:07:16;;;;;;;11.77;4.72;;;588.80;1433.60;;;;;;5032361;28;20033;-72
2021/06/15 08:09:42;;;;;;;8.27;4.00;;;589.10;1433.60;;;;;;5031849;28;20045;-70
2021/06/15 08:12:08;;;;;;;8.75;4.43;;;589.30;1433.60;;;;;;5032346;28;20456;-72
2021/06/15 08:14:34;;;;;;;7.03;4.03;;;589.50;1408.00;;;;;;5032442;28;20115;-71
2021/06/15 08:16:59;;;;;;;13.77;5.57;;;589.10;1408.00;;;;;;5032272;28;20148;-73
2021/06/15 08:19:26;;;;;;;8.20;4.35;;;589.00;1433.60;;;;;;5032109;28;20455;-69
2021/06/15 08:21:52;;;;;;;6.13;3.90;;;589.20;1408.00;;;;;;5032047;28;20018;-74
2021/06/15 08:24:18;;;;;;;15.60;8.82;;;589.70;1331.20;;;;;;5014199;28;20049;-71
2021/06/15 08:26:44;;;;;;;9.82;4.57;;;;;;;;;;5033377;28;20032;-74
2021/06/15 08:29:11;;;;;;;10.30;4.45;;;;;;;;;;5000287;28;20105;-74
2021/06/15 08:31:37;;;;;;;8.52;3.88;;;;;;;;;;5032345;28;20029;-70
2021/06/15 08:34:03;;;;;;;7.03;4.45;;;;;;;;;;5032001;28;20032;-70
2021/06/15 08:36:29;;;;;;;11.45;4.88;;;;;;;;;;5031884;28;20116;-73
2021/06/15 08:38:56;;;;;;;7.22;4.13;;;;;;;;;;5031952;28;20026;-73
2021/06/15 08:41:22;;;;;;;7.63;4.30;;;;;;;;;;5031744;28;20502;-74
2021/06/15 08:43:48;;;;;;;8.50;4.03;;;;;;;;;;5032129;28;20100;-73
2021/06/15 08:46:15;;;;;;;6.78;3.95;;;;;;;;;;5032313;28;20468;-73
2021/06/15 08:48:41;;;;;;;7.25;4.05;;;;;;;;;;5032104;28;20036;-73
2021/06/15 08:51:08;;;;;;;8.13;4.32;;;;;;;;;;5031893;28;20503;-73
2021/06/15 08:53:35;;;;;;;10.32;4.18;;;;;;;;;;5032095;28;20155;-73
2021/06/15 08:56:06;;;;;;;17.85;4.68;;;;;;;;;;5039589;28;20039;-74
2021/06/15 08:58:35;;;;;;;12.80;5.90;;;;;;;;;;5015332;28;20031;-70
2021/06/15 09:01:01;;;;;;;8.57;4.18;;;;;;;;;;5031703;28;20483;-73
2021/06/15 09:03:28;;;;;;;13.60;4.80;;;;;;;;;;5031709;28;20013;-73
2021/06/15 09:05:53;;;;;;;6.20;3.60;;;615.10;1203.20;;;;;;5031841;28;20503;-72
2021/06/15 09:08:19;;;;;;;13.75;6.13;;;614.90;1228.80;;;;;;5031832;28;20025;-73
2021/06/15 09:10:47;;;;;;;4.95;3.20;;;614.80;1254.40;;;;;;5031594;28;20065;-72
2021/06/15 09:13:31;;;;;;;11.23;4.57;;;614.70;1254.40;;;;;;5031676;28;20385;-73
2021/06/15 09:15:57;;;;;;;22.13;7.47;;;614.50;1305.60;;;;;;5019452;28;20021;-70
2021/06/15 09:18:28;;;;;;;7.75;4.30;;;614.50;1331.20;;;;;;5031636;28;20113;-71
2021/06/15 09:20:59;;;;;;;9.27;4.50;;;614.50;1331.20;;;;;;5018651;28;20013;-70
2021/06/15 09:23:32;;;;;;;10.38;4.65;;;614.60;1305.60;;;;;;5033602;28;20045;-72
2021/06/15 09:25:58;;;;;;;8.38;4.68;;;589.70;1305.60;;;;;;5023833;28;20021;-70
2021/06/15 09:28:24;;;;;;;7.70;4.00;;;589.70;1356.80;;;;;;5026644;28;20385;-73
2021/06/15 09:30:57;;;;;;;6.30;3.53;;;;;;;;;;5029407;28;20029;-71
2021/06/15 09:33:42;;;;;;;9.90;4.40;;;;;;;;;;5034864;28;20040;-72
2021/06/15 09:36:14;;;;;;;7.18;3.30;;;;;;;;;;5034795;28;20037;-72
2021/06/15 09:38:54;;;;;;;33.08;22.33;;;;;;;;;;5034986;28;20040;-73
2021/06/15 09:41:36;;;;;;;6.63;4.95;;;;;;;;;;5034584;28;20573;-72
2021/06/15 09:44:31;;;;;;;7.93;4.57;;;;;;;;;;5034577;28;20025;-70
2021/06/15 09:47:00;;;;;;;6.10;3.50;;;;;;;;;;4935351;29;20553;-71
2021/06/15 09:49:29;;;;;;;11.38;4.78;;;;;;;;;;4935369;29;20031;-73
2021/06/15 09:52:27;;;;;;;9.77;4.28;;;;;;;;;;4935143;29;20213;-73
2021/06/15 09:54:55;;;;;;;11.02;4.95;;;;;;;;;;4878539;29;20523;-71
2021/06/15 09:57:25;;;;;;;7.60;4.70;;;;;;;;;;4868789;29;20149;-72
2021/06/15 10:00:12;;;;;;;6.93;3.78;;;;;;;;;;4878491;29;20496;-73
2021/06/15 10:02:50;;;;;;;10.10;3.85;;;;;;;;;;4872133;29;20411;-73
2021/06/15 10:05:25;;;;;;;5.93;4.32;;;;;;;;;;4878487;29;20084;-71
2021/06/15 10:07:52;;;;;;;9.00;4.78;;;;;;;;;;4878653;29;20036;-73
2021/06/15 10:10:19;;;;;;;8.57;4.40;;;;;;;;;;4878148;29;20036;-72
2021/06/15 10:12:46;;;;;;;10.23;4.72;;;;;;;;;;4878468;29;20044;-71
2021/06/15 10:15:12;;;;;;;5.63;3.20;;;;;;;;;;4878207;29;20048;-72
2021/06/15 10:17:38;;;;;;;8.90;3.72;;;;;;;;;;4878330;29;20040;-73
2021/06/15 10:20:05;;;;;;;8.65;5.05;;;;;;;;;;4878405;29;20484;-72
2021/06/15 10:22:31;;;;;;;8.60;4.20;;;;;;;;;;4887259;29;20054;-70
2021/06/15 10:24:58;;;;;;;5.03;3.67;;;;;;;;;;4934563;29;20059;-73
2021/06/15 10:27:24;;;;;;;13.55;4.30;;;;;;;;;;4934074;29;20031;-71
2021/06/15 10:29:51;;;;;;;11.43;4.88;;;;;;;;;;4949129;28;20497;-73
2021/06/15 10:32:18;;;;;;;12.20;5.15;;;;;;;;;;5026039;28;20022;-73
2021/06/15 10:34:46;;;;;;;11.15;6.50;;;;;;;;;;5033274;28;20022;-72
2021/06/15 10:37:31;;;;;;;6.30;4.10;;;;;;;;;;5033945;28;20021;-72
2021/06/15 10:39:58;;;;;;;7.10;4.53;;;;;;;;;;5033519;28;20040;-73
2021/06/15 10:42:24;;;;;;;8.38;4.28;;;;;;;;;;5033605;28;20029;-72
2021/06/15 10:45:11;;;;;;;6.43;4.28;;;;;;;;;;5033581;28;20022;-72
2021/06/15 10:47:37;;;;;;;7.35;3.83;;;;;;;;;;5017189;28;20053;-72
2021/06/15 10:50:03;;;;;;;10.52;4.22;;;;;;;;;;5033351;28;20025;-72
2021/06/15 10:52:48;;;;;;;7.47;3.83;;;;;;;;;;5033387;28;20022;-70
2021/06/15 10:55:34;;;;;;;20.58;7.10;;;;;;;;;;5034100;28;20519;-73
2021/06/15 10:58:00;;;;;;;15.30;5.30;;;;;;;;;;5024609;28;20037;-70
2021/06/15 11:00:26;;;;;;;7.95;3.50;;;;;;;;;;5033401;28;20025;-70
2021/06/15 11:03:28;;;;;;;8.40;3.63;;;;;;;;;;5033329;28;20041;-70
2021/06/15 11:06:02;;;;;;;8.68;4.55;;;;;;;;;;4942750;29;20031;-72
2021/06/15 11:08:29;;;;;;;8.23;3.80;;;;;;;;;;4952925;29;20441;-70
2021/06/15 11:11:00;;;;;;;6.38;3.88;;;;;;;;;;4953081;29;20035;-71
2021/06/15 11:13:48;;;;;;;9.77;4.28;;;;;;;;;;4952598;29;20043;-71
2021/06/15 11:16:22;;;;;;;7.65;4.03;;;;;;;;;;4952842;29;20134;-69
2021/06/15 11:19:08;;;;;;;15.10;4.63;;;;;;;;;;4952839;29;20023;-72
2021/06/15 11:21:34;;;;;;;8.52;4.50;;;;;;;;;;4952767;29;20043;-73
2021/06/15 11:24:20;;;;;;;8.15;3.85;;;;;;;;;;4952382;28;20046;-72
2021/06/15 11:26:47;;;;;;;7.05;4.03;;;;;;;;;;4953009;28;20061;-73
2021/06/15 11:29:37;;;;;;;6.70;3.50;;;;;;;;;;4952421;29;20039;-70
2021/06/15 11:32:21;;;;;;;7.10;4.03;;;;;;;;;;4952603;29;20035;-69
2021/06/15 11:34:58;;;;;;;11.38;4.65;;;;;;;;;;4952276;29;20335;-69
2021/06/15 11:37:34;;;;;;;7.28;3.85;;;;;;;;;;4952538;29;20451;-70
2021/06/15 11:40:09;;;;;;;10.85;4.07;;;;;;;;;;4991580;28;20109;-71
2021/06/15 11:42:35;;;;;;;7.63;3.63;;;;;;;;;;5032495;28;20484;-69
2021/06/15 11:45:12;;;;;;;10.93;4.50;;;;;;;;;;5031456;28;20026;-70
2021/06/15 11:47:49;;;;;;;7.28;3.97;;;691.80;1024.00;;;;;;5032650;28;20120;-69
2021/06/15 11:50:24;;;;;;;6.38;4.10;;;691.80;1024.00;;;;;;5032456;28;20080;-68
2021/06/15 11:53:16;;;;;;;13.52;5.55;;;691.90;1049.60;;;;;;5032565;28;20468;-68
2021/06/15 11:55:44;;;;;;;14.55;4.10;;;691.90;1024.00;;;;;;5021984;28;20399;-73
2021/06/15 11:58:22;;;;;;;12.55;4.47;;;691.60;1049.60;;;;;;5036597;28;20032;-69
2021/06/15 12:00:56;;;;;;;9.52;4.50;;;691.40;1075.20;;;;;;5032382;28;20087;-72
2021/06/15 12:03:26;;;;;;;14.65;4.88;;;691.40;1075.20;;;;;;5032327;28;20484;-73
2021/06/15 12:05:55;;;;;;;8.77;5.20;;;691.40;1075.20;;;;;;5032248;28;20037;-72
2021/06/15 12:08:21;;;;;;;5.75;4.00;;;691.40;1075.20;;;;;;5032408;28;20034;-73
2021/06/15 12:10:49;;;;;;;7.38;3.90;;;691.30;1100.80;;;;;;5032546;28;20025;-71
2021/06/15 12:13:21;;;;;;;9.90;4.63;;;691.20;1126.40;;;;;;5032125;28;20025;-74
2021/06/15 12:16:12;;;;;;;6.18;3.67;;;666.50;1152.00;;;;;;5032119;28;20178;-73
2021/06/15 12:18:46;;;;;;;6.70;4.47;;;666.30;1126.40;;;;;;5031864;28;20025;-70
2021/06/15 12:21:17;;;;;;;8.85;4.45;;;666.20;1152.00;;;;;;5032322;28;20228;-74
2021/06/15 12:24:03;;;;;;;7.10;4.53;;;666.00;1152.00;;;;;;5031934;28;20042;-71
2021/06/15 12:26:36;;;;;;;9.18;4.13;;;665.90;1152.00;;;;;;5032187;28;20033;-70
2021/06/15 12:29:05;;;;;;;8.98;3.83;;;666.20;1152.00;;;;;;5018623;28;20034;-67
2021/06/15 12:31:35;;;;;;;8.82;5.25;;;666.20;1152.00;;;;;;5018322;28;20025;-72
2021/06/15 12:34:05;;;;;;;7.55;4.40;;;666.20;1152.00;;;;;;5032139;28;20053;-71
2021/06/15 12:36:39;;;;;;;10.35;3.70;;;;;;;;;;5031937;28;20021;-67
2021/06/15 12:39:08;;;;;;;6.20;3.58;;;;;;;;;;5031996;28;20044;-69
2021/06/15 12:41:35;;;;;;;10.77;3.85;;;;;;;;;;5031590;28;20029;-70
2021/06/15 12:44:01;;;;;;;13.00;4.40;;;;;;;;;;5031983;28;20539;-67
2021/06/15 12:46:30;;;;;;;8.23;4.43;;;691.20;1152.00;;;;;;5032033;28;20439;-72
2021/06/15 12:48:56;;;;;;;6.40;3.80;;;;;;;;;;5031921;28;20053;-70
2021/06/15 12:51:24;;;;;;;6.60;3.95;;;;;;;;;;5031793;28;20030;-70
2021/06/15 12:53:50;;;;;;;5.82;3.78;;;;;;;;;;5032341;28;20030;-67
2021/06/15 12:56:19;;;;;;;7.50;4.65;;;;;;;;;;5040842;28;20025;-71
2021/06/15 12:58:46;;;;;;;8.63;4.82;;;;;;;;;;5031718;28;20025;-71
2021/06/15 13:01:18;;;;;;;4.10;3.05;;;;;;;;;;5035690;28;20029;-70
2021/06/15 13:03:48;;;;;;;9.25;3.95;;;;;;;;;;5035518;28;20009;-70
2021/06/15 13:06:16;;;;;;;6.53;3.80;;;640.60;1203.20;;;;;;5035656;28;20034;-74
2021/06/15 13:08:42;;;;;;;11.00;4.15;;;;;;;;;;5035374;28;20017;-73
2021/06/15 13:11:22;;;;;;;7.85;4.43;;;;;;;;;;5035309;28;20034;-71
2021/06/15 13:14:04;;;;;;;11.05;4.90;;;;;;;;;;5035297;28;20021;-69
2021/06/15 13:16:38;;;;;;;7.93;5.07;;;;;;;;;;5035196;28;20098;-67
2021/06/15 13:19:09;;;;;;;11.30;5.25;;;;;;;;;;5034842;28;20045;-69
2021/06/15 13:21:49;;;;;;;10.48;4.63;;;;;;;;;;5035363;28;20029;-70
2021/06/15 13:24:17;;;;;;;8.00;4.05;;;;;;;;;;5034984;28;20048;-70
2021/06/15 13:26:44;;;;;;;6.32;3.75;;;;;;;;;;5035315;28;20048;-70
2021/06/15 13:29:10;;;;;;;9.90;4.30;;;;;;;;;;5021046;28;20131;-70
2021/06/15 13:31:37;;;;;;;9.25;4.70;;;;;;;;;;5032987;28;20111;-69
2021/06/15 13:34:06;;;;;;;11.15;5.25;;;;;;;;;;5034211;28;20029;-69
2021/06/15 13:36:33;;;;;;;6.95;4.40;;;;;;;;;;5024807;28;20488;-69
2021/06/15 13:39:08;;;;;;;9.27;4.35;;;;;;;;;;5014847;28;20072;-70
2021/06/15 13:41:35;;;;;;;7.82;4.18;;;;;;;;;;5025099;28;20022;-70
2021/06/15 13:44:01;;;;;;;9.77;4.82;;;;;;;;;;5014822;28;20100;-69
2021/06/15 13:46:27;;;;;;;6.50;3.92;;;;;;;;;;5014825;28;20236;-70
2021/06/15 13:48:57;;;;;;;13.30;6.18;;;;;;;;;;5015000;28;20044;-69
2021/06/15 13:51:24;;;;;;;11.63;5.35;;;;;;;;;;5014586;28;20117;-70
2021/06/15 13:53:51;;;;;;;6.65;4.55;;;;;;;;;;5014323;28;20121;-72
2021/06/15 13:56:18;;;;;;;8.57;4.45;;;;;;;;;;5014947;28;20030;-71
2021/06/15 13:58:44;;;;;;;14.27;7.70;;;;;;;;;;5014489;28;20045;-71
2021/06/15 14:01:11;;;;;;;7.07;4.75;;;;;;;;;;5014335;28;20515;-70
2021/06/15 14:03:37;;;;;;;6.10;4.63;;;;;;;;;;5014432;28;20018;-71
2021/06/15 14:06:04;;;;;;;9.93;5.40;;;640.50;1228.80;;;;;;5014487;28;20033;-71
2021/06/15 14:08:29;;;;;;;7.10;4.57;;;640.50;1203.20;;;;;;5013683;28;20503;-72
2021/06/15 14:10:56;;;;;;;5.38;4.60;;;640.50;1228.80;;;;;;5014437;28;20018;-71
2021/06/15 14:13:22;;;;;;;10.63;4.03;;;;;;;;;;5014152;28;20022;-72
2021/06/15 14:15:49;;;;;;;8.00;4.15;;;;;;;;;;5014320;28;20112;-70
2021/06/15 14:18:15;;;;;;;73.57;38.30;;;;;;;;;;5014106;28;20057;-71
2021/06/15 14:20:44;;;;;;;20.65;12.43;;;640.40;1203.20;;;;;;5014269;28;20022;-72
2021/06/15 14:23:15;;;;;;;33.08;18.48;;;640.20;1203.20;;;;;;5013762;28;20046;-71
2021/06/15 14:25:42;;;;;;;62.08;33.47;;;640.20;1203.20;;;;;;5021595;28;20114;-70
2021/06/15 14:28:08;;;;;;;90.93;53.45;;;;;;;;;;5015841;28;20021;-70